N1EDU Weather Reports


Display with metric or nautical units.
time (UTC)temp
F
wind
direction
speed
MPH
gust
MPH
rain 1hr
in
rain 24hr
in
rain mn
in
humidity
%
barometer
mb
20260504231748 66 255 2.0 12.0 0.00 0.00 0.00 41 1005.7
20260504231247 66 263 7.0 12.0 0.00 0.00 0.00 40 1005.7
20260504230746 66 249 5.0 8.0 0.00 0.00 0.00 41 1005.7
20260504230245 66 278 6.0 9.0 0.00 0.00 0.00 40 1005.4
20260504225744 67 271 2.0 9.0 0.00 0.00 0.00 40 1005.4
20260504225243 68 264 4.0 8.0 0.00 0.00 0.00 38 1005.4
20260504224743 68 277 5.0 11.0 0.00 0.00 0.00 37 1005.1
20260504224242 68 280 5.0 11.0 0.00 0.00 0.00 38 1005.1
20260504223741 68 275 8.0 11.0 0.00 0.00 0.00 37 1005.1
20260504223237 68 286 5.0 13.0 0.00 0.00 0.00 37 1005.1
20260504222736 68 269 8.0 13.0 0.00 0.00 0.00 37 1005.1
20260504222204 67 291 5.0 11.0 0.00 0.00 0.00 39 1005.1
20260504221703 67 284 7.0 11.0 0.00 0.00 0.00 39 1005.0
20260504221202 67 306 5.0 13.0 0.00 0.00 0.00 38 1005.0
20260504220702 68 254 5.0 14.0 0.00 0.00 0.00 38 1005.0
20260504220201 68 224 3.0 14.0 0.00 0.00 0.00 38 1005.0
20260504215700 68 267 6.0 15.0 0.00 0.00 0.00 37 1005.0
20260504215128 68 264 5.0 17.0 0.00 0.00 0.00 38 1005.0
20260504214628 69 271 10.0 18.0 0.00 0.00 0.00 36 1005.1
20260504214055 70 248 9.0 18.0 0.00 0.00 0.00 34 1005.1
20260504213554 70 297 9.0 17.0 0.00 0.00 0.00 34 1005.1
20260504213054 69 308 9.0 17.0 0.00 0.00 0.00 35 1005.1
20260504212553 69 283 7.0 19.0 0.00 0.00 0.00 36 1005.0
20260504212052 69 270 12.0 19.0 0.00 0.00 0.00 34 1005.0
20260504211551 70 274 6.0 20.0 0.00 0.00 0.00 35 1005.1
20260504211050 71 268 10.0 20.0 0.00 0.00 0.00 33 1005.1
20260504210550 72 270 9.0 19.0 0.00 0.00 0.00 32 1005.1
20260504210049 72 282 9.0 20.0 0.00 0.00 0.00 33 1005.1
20260504205548 73 302 8.0 21.0 0.00 0.00 0.00 31 1005.1
20260504205047 74 294 10.0 21.0 0.00 0.00 0.00 31 1004.8
20260504204544 73 298 6.0 19.0 0.00 0.00 0.00 33 1004.8
20260504203910 73 264 10.0 22.0 0.00 0.00 0.00 32 1004.8
20260504203410 72 301 4.0 22.0 0.00 0.00 0.00 33 1004.8
20260504202909 70 268 7.0 16.0 0.00 0.00 0.00 38 1004.7
20260504202337 71 283 4.0 10.0 0.00 0.00 0.00 38 1004.7
20260504201805 71 310 7.0 13.0 0.00 0.00 0.00 37 1004.8
20260504201305 71 303 7.0 19.0 0.00 0.00 0.00 36 1005.1
20260504200804 72 282 8.0 20.0 0.00 0.00 0.00 33 1005.1
20260504200233 72 289 11.0 20.0 0.00 0.00 0.00 34 1005.1
20260504195732 71 310 8.0 17.0 0.00 0.00 0.00 37 1005.1
20260504195231 71 282 9.0 17.0 0.00 0.00 0.00 33 1005.1
20260504194659 71 294 7.0 18.0 0.00 0.00 0.00 34 1005.1
20260504194127 71 307 6.0 18.0 0.00 0.00 0.00 36 1005.1
20260504193626 70 291 9.0 17.0 0.00 0.00 0.00 35 1005.1
20260504193126 68 288 6.0 14.0 0.00 0.00 0.00 38 1005.1
20260504192625 68 276 9.0 18.0 0.00 0.00 0.00 36 1005.4
20260504192124 69 269 11.0 18.0 0.00 0.00 0.00 37 1005.1
20260504191624 69 323 9.0 21.0 0.00 0.00 0.00 36 1005.1
20260504191123 70 292 11.0 21.0 0.00 0.00 0.00 34 1005.4
20260504190622 70 301 8.0 22.0 0.00 0.00 0.00 37 1005.4
20260504190122 70 265 12.0 22.0 0.00 0.00 0.00 33 1005.4
20260504185621 70 282 7.0 17.0 0.00 0.00 0.00 37 1005.4
20260504185049 71 309 9.0 18.0 0.00 0.00 0.00 36 1005.4
20260504184548 71 308 8.0 19.0 0.00 0.00 0.00 33 1005.1
20260504184047 70 298 5.0 19.0 0.00 0.00 0.00 36 1005.4
20260504183547 69 285 7.0 32.0 0.00 0.00 0.00 36 1005.4
20260504183046 70 279 14.0 32.0 0.00 0.00 0.00 34 1005.4
20260504182545 70 270 12.0 26.0 0.00 0.00 0.00 35 1005.4
20260504182044 70 276 13.0 30.0 0.00 0.00 0.00 35 1005.4
20260504181544 70 277 10.0 30.0 0.00 0.00 0.00 36 1005.4
20260504181043 70 284 13.0 26.0 0.00 0.00 0.00 33 1005.4
20260504180542 71 285 9.0 23.0 0.00 0.00 0.00 33 1005.0
20260504180042 71 288 10.0 26.0 0.00 0.00 0.00 32 1005.4
20260504175541 70 256 13.0 26.0 0.00 0.00 0.00 33 1005.0
20260504175040 70 250 12.0 21.0 0.00 0.00 0.00 35 1005.4
20260504174539 70 265 11.0 21.0 0.00 0.00 0.00 33 1005.4
20260504174035 69 272 7.0 22.0 0.00 0.00 0.00 38 1005.4
20260504173534 68 257 10.0 22.0 0.00 0.00 0.00 37 1005.7
20260504173033 68 276 11.0 19.0 0.00 0.00 0.00 35 1005.7
20260504172533 67 299 11.0 27.0 0.00 0.00 0.00 39 1005.7
20260504172032 67 261 9.0 27.0 0.00 0.00 0.00 36 1005.7
20260504171531 69 296 10.0 23.0 0.00 0.00 0.00 35 1005.7
20260504171030 69 283 7.0 26.0 0.00 0.00 0.00 36 1005.7
20260504170530 69 262 14.0 26.0 0.00 0.00 0.00 35 1005.7
20260504151009 65 268 9.0 21.0 0.00 0.00 0.00 42 1006.4
20260504150437 65 240 10.0 20.0 0.00 0.00 0.00 41 1006.4
20260504141328 60 277 10.0 19.0 0.00 0.00 0.00 47 1007.0
20260504140827 60 292 10.0 17.0 0.00 0.00 0.00 47 1007.3
20260504140324 60 282 8.0 16.0 0.00 0.00 0.00 48 1007.3
20260504130337 57 251 10.0 17.0 0.00 0.00 0.00 52 1008.0
20260504120155 49 220 2.0 6.0 0.00 0.00 0.00 72 1008.7
20260504110511 42 184 0.0 3.0 0.00 0.00 0.00 92 1009.0
20260504100259 38 114 0.0 0.0 0.00 0.00 0.00 93 1008.7
20260504081539 41 219 2.0 5.0 0.00 0.00 0.00 79 1008.7
20260504081007 41 232 2.0 5.0 0.00 0.00 0.00 79 1008.7
20260504080436 41 257 2.0 7.0 0.00 0.00 0.00 79 1008.7
20260504070222 39 265 3.0 6.0 0.00 0.00 0.00 89 1008.3
20260504050720 33 257 2.0 5.0 0.00 0.00 0.00 95 1008.3
20260504050220 33 244 2.0 5.0 0.00 0.00 0.00 95 1008.3
20260504045719 33 248 2.0 4.0 0.00 0.00 0.00 95 1008.3
20260504045218 33 253 2.0 4.0 0.00 0.00 0.00 94 1008.3
20260504044717 34 236 2.0 5.0 0.00 0.00 0.00 92 1008.3
20260504044146 34 252 2.0 5.0 0.00 0.00 0.00 92 1008.3
20260504043614 34 237 3.0 5.0 0.00 0.00 0.00 92 1008.3
20260504043113 34 248 3.0 5.0 0.00 0.00 0.00 92 1008.2
20260504042613 35 204 2.0 4.0 0.00 0.00 0.00 90 1008.2
20260504042112 35 263 2.0 5.0 0.00 0.00 0.00 89 1008.2
20260504041540 35 266 2.0 6.0 0.00 0.00 0.00 88 1008.2
20260504041039 36 257 2.0 6.0 0.00 0.00 0.00 88 1008.2
20260504040538 36 250 3.0 6.0 0.00 0.00 0.00 88 1008.2
20260504040038 37 251 2.0 7.0 0.00 0.00 0.00 86 1008.2
20260504035537 37 260 3.0 7.0 0.00 0.00 0.00 84 1008.2
20260504035036 37 282 3.0 7.0 0.00 0.00 0.00 83 1008.2
20260504034535 37 272 4.0 8.0 0.00 0.00 0.00 83 1008.2
20260504034034 37 277 4.0 8.0 0.00 0.00 0.00 83 1007.9
20260504033534 37 272 3.0 8.0 0.00 0.00 0.00 84 1007.9
20260504033033 37 283 4.0 8.0 0.00 0.00 0.00 85 1007.9
20260504032501 36 279 4.0 7.0 0.00 0.00 0.00 86 1007.9
20260504032001 36 274 3.0 7.0 0.00 0.00 0.00 87 1007.9
20260504031500 36 284 3.0 5.0 0.00 0.00 0.00 87 1007.9
20260504030959 36 299 3.0 8.0 0.00 0.00 0.00 88 1007.9
20260504030458 36 292 4.0 8.0 0.00 0.00 0.00 89 1007.9
20260504025957 36 283 2.0 8.0 0.00 0.00 0.00 90 1007.9
20260504025425 35 291 4.0 8.0 0.00 0.00 0.00 91 1007.9
20260504024854 35 280 4.0 9.0 0.00 0.00 0.00 91 1007.9
20260504024322 34 283 4.0 9.0 0.00 0.00 0.00 93 1007.9
20260504023821 34 293 4.0 7.0 0.00 0.00 0.00 93 1007.9
20260504023320 34 298 2.0 4.0 0.00 0.00 0.00 93 1007.9
20260504022820 34 23 0.0 4.0 0.00 0.00 0.00 93 1007.9
20260504022319 34 300 2.0 4.0 0.00 0.00 0.00 92 1007.9
20260504021819 35 294 1.0 2.0 0.00 0.00 0.00 92 1007.9
20260504021318 35 249 0.0 2.0 0.00 0.00 0.00 92 1007.9
20260504020817 35 263 0.0 2.0 0.00 0.00 0.00 92 1007.9
20260504020316 35 211 0.0 3.0 0.00 0.00 0.00 90 1007.9
20260504015816 35 229 2.0 3.0 0.00 0.00 0.00 89 1007.9
20260504015315 36 323 0.0 0.0 0.00 0.00 0.00 87 1007.9
20260504014814 36 323 0.0 0.0 0.00 0.00 0.00 86 1007.9
20260504014313 36 323 0.0 2.0 0.00 0.00 0.00 85 1007.9
20260504013813 37 336 0.0 2.0 0.00 0.00 0.00 84 1007.6
20260504013312 37 319 1.0 5.0 0.00 0.00 0.00 83 1007.6
20260504012809 38 281 1.0 5.0 0.00 0.00 0.00 82 1007.9
20260504012308 38 245 1.0 5.0 0.00 0.00 0.00 80 1007.9
20260504011807 38 272 2.0 5.0 0.00 0.00 0.00 79 1007.9
20260504011305 38 277 3.0 5.0 0.00 0.00 0.00 78 1007.9
20260504010805 38 284 1.0 2.0 0.00 0.00 0.00 76 1007.6
20260504010304 38 288 2.0 5.0 0.00 0.00 0.00 75 1007.6
20260504005803 39 305 2.0 5.0 0.00 0.00 0.00 74 1007.6
20260504005304 39 208 0.0 3.0 0.00 0.00 0.00 73 1007.6
20260504004802 40 208 0.0 4.0 0.00 0.00 0.00 71 1007.6
20260504004257 40 252 0.0 4.0 0.00 0.00 0.00 70 1007.3
20260504003756 40 322 2.0 5.0 0.00 0.00 0.00 70 1007.3
20260504003256 41 319 3.0 5.0 0.00 0.00 0.00 69 1007.3
20260504002724 41 312 3.0 6.0 0.00 0.00 0.00 68 1006.9
20260504002223 41 314 4.0 7.0 0.00 0.00 0.00 68 1006.9
20260504001722 41 311 4.0 7.0 0.00 0.00 0.00 68 1006.9
20260504001222 42 317 1.0 6.0 0.00 0.00 0.00 67 1006.9
20260504000721 42 319 3.0 8.0 0.00 0.00 0.00 67 1006.9
20260504000150 43 307 2.0 8.0 0.00 0.00 0.00 65 1006.6
20260503235649 43 329 2.0 5.0 0.00 0.00 0.00 64 1006.6
20260503235148 44 338 3.0 6.0 0.00 0.00 0.00 62 1006.6
20260503234647 44 305 3.0 6.0 0.00 0.00 0.00 62 1006.6
20260503234146 45 318 3.0 8.0 0.00 0.00 0.00 61 1006.6
20260503233646 45 323 4.0 8.0 0.00 0.00 0.00 59 1006.3
20260503233145 46 324 3.0 6.0 0.00 0.00 0.00 58 1006.3
20260503232613 47 348 3.0 11.0 0.00 0.00 0.00 56 1006.3
20260503232112 47 342 5.0 11.0 0.00 0.00 0.00 55 1006.3